sensor_id;sensor_type;location;lat;lon;timestamp;P1;durP1;ratioP1;P2;durP2;ratioP2
60314;SDS011;46159;42.550;21.904;2024-01-15T00:00:32;685.03;;;447.73;;
60314;SDS011;46159;42.550;21.904;2024-01-15T00:02:59;663.33;;;429.13;;
60314;SDS011;46159;42.550;21.904;2024-01-15T00:05:25;560.78;;;357.38;;
60314;SDS011;46159;42.550;21.904;2024-01-15T00:07:51;542.78;;;345.73;;
60314;SDS011;46159;42.550;21.904;2024-01-15T00:10:17;514.35;;;317.70;;
60314;SDS011;46159;42.550;21.904;2024-01-15T00:12:46;520.33;;;327.95;;
60314;SDS011;46159;42.550;21.904;2024-01-15T00:15:13;508.75;;;306.17;;
60314;SDS011;46159;42.550;21.904;2024-01-15T00:17:43;521.33;;;315.83;;
60314;SDS011;46159;42.550;21.904;2024-01-15T00:20:09;534.85;;;326.65;;
60314;SDS011;46159;42.550;21.904;2024-01-15T00:22:37;492.48;;;295.27;;
60314;SDS011;46159;42.550;21.904;2024-01-15T00:25:04;496.83;;;302.25;;
60314;SDS011;46159;42.550;21.904;2024-01-15T00:27:33;495.30;;;297.65;;
60314;SDS011;46159;42.550;21.904;2024-01-15T00:30:00;500.45;;;304.30;;
60314;SDS011;46159;42.550;21.904;2024-01-15T00:32:27;504.15;;;303.75;;
60314;SDS011;46159;42.550;21.904;2024-01-15T00:34:56;537.70;;;336.42;;
60314;SDS011;46159;42.550;21.904;2024-01-15T00:37:22;584.40;;;355.33;;
60314;SDS011;46159;42.550;21.904;2024-01-15T00:39:52;624.78;;;393.33;;
60314;SDS011;46159;42.550;21.904;2024-01-15T00:42:18;618.13;;;386.40;;
60314;SDS011;46159;42.550;21.904;2024-01-15T00:44:44;581.72;;;367.02;;
60314;SDS011;46159;42.550;21.904;2024-01-15T00:47:10;560.80;;;355.42;;
60314;SDS011;46159;42.550;21.904;2024-01-15T00:49:37;572.40;;;355.63;;
60314;SDS011;46159;42.550;21.904;2024-01-15T00:52:04;577.55;;;365.05;;
60314;SDS011;46159;42.550;21.904;2024-01-15T00:54:30;585.90;;;365.05;;
60314;SDS011;46159;42.550;21.904;2024-01-15T00:56:57;617.00;;;387.50;;
60314;SDS011;46159;42.550;21.904;2024-01-15T00:59:24;590.05;;;369.00;;
60314;SDS011;46159;42.550;21.904;2024-01-15T01:01:51;611.83;;;392.10;;
60314;SDS011;46159;42.550;21.904;2024-01-15T01:04:17;615.45;;;380.60;;
60314;SDS011;46159;42.550;21.904;2024-01-15T01:06:46;605.50;;;386.30;;
60314;SDS011;46159;42.550;21.904;2024-01-15T01:09:13;610.35;;;384.70;;
60314;SDS011;46159;42.550;21.904;2024-01-15T01:11:41;599.83;;;378.98;;
60314;SDS011;46159;42.550;21.904;2024-01-15T01:14:08;662.00;;;422.27;;
60314;SDS011;46159;42.550;21.904;2024-01-15T01:16:38;689.53;;;438.88;;
60314;SDS011;46159;42.550;21.904;2024-01-15T01:19:07;654.05;;;422.75;;
60314;SDS011;46159;42.550;21.904;2024-01-15T01:21:33;620.60;;;397.30;;
60314;SDS011;46159;42.550;21.904;2024-01-15T01:23:59;631.92;;;390.70;;
60314;SDS011;46159;42.550;21.904;2024-01-15T01:26:26;513.42;;;310.15;;
60314;SDS011;46159;42.550;21.904;2024-01-15T01:28:52;469.63;;;273.40;;
60314;SDS011;46159;42.550;21.904;2024-01-15T01:31:18;423.02;;;231.30;;
60314;SDS011;46159;42.550;21.904;2024-01-15T01:33:46;409.52;;;223.25;;
60314;SDS011;46159;42.550;21.904;2024-01-15T01:36:13;395.50;;;217.80;;
60314;SDS011;46159;42.550;21.904;2024-01-15T01:38:39;405.10;;;226.90;;
60314;SDS011;46159;42.550;21.904;2024-01-15T01:41:06;404.23;;;218.02;;
60314;SDS011;46159;42.550;21.904;2024-01-15T01:43:32;402.58;;;223.23;;
60314;SDS011;46159;42.550;21.904;2024-01-15T01:46:00;370.38;;;214.68;;
60314;SDS011;46159;42.550;21.904;2024-01-15T01:48:27;331.35;;;181.57;;
60314;SDS011;46159;42.550;21.904;2024-01-15T01:50:57;340.52;;;188.63;;
60314;SDS011;46159;42.550;21.904;2024-01-15T01:53:24;330.52;;;186.65;;
60314;SDS011;46159;42.550;21.904;2024-01-15T01:55:50;344.92;;;194.27;;
60314;SDS011;46159;42.550;21.904;2024-01-15T01:58:17;344.20;;;191.50;;
60314;SDS011;46159;42.550;21.904;2024-01-15T02:00:43;351.23;;;195.02;;
60314;SDS011;46159;42.550;21.904;2024-01-15T02:03:10;357.05;;;198.30;;
60314;SDS011;46159;42.550;21.904;2024-01-15T02:05:37;336.20;;;188.30;;
60314;SDS011;46159;42.550;21.904;2024-01-15T02:08:06;323.77;;;179.25;;
60314;SDS011;46159;42.550;21.904;2024-01-15T02:10:33;301.83;;;167.88;;
60314;SDS011;46159;42.550;21.904;2024-01-15T02:13:02;312.88;;;169.95;;
60314;SDS011;46159;42.550;21.904;2024-01-15T02:15:29;279.83;;;161.07;;
60314;SDS011;46159;42.550;21.904;2024-01-15T02:18:02;288.05;;;161.27;;
60314;SDS011;46159;42.550;21.904;2024-01-15T02:20:29;299.33;;;168.88;;
60314;SDS011;46159;42.550;21.904;2024-01-15T02:25:29;311.08;;;179.40;;
60314;SDS011;46159;42.550;21.904;2024-01-15T02:27:55;292.13;;;163.95;;
60314;SDS011;46159;42.550;21.904;2024-01-15T02:30:23;295.00;;;163.13;;
60314;SDS011;46159;42.550;21.904;2024-01-15T02:32:52;284.60;;;162.77;;
60314;SDS011;46159;42.550;21.904;2024-01-15T02:35:22;284.80;;;161.77;;
60314;SDS011;46159;42.550;21.904;2024-01-15T02:37:48;289.60;;;165.60;;
60314;SDS011;46159;42.550;21.904;2024-01-15T02:40:15;301.45;;;171.05;;
60314;SDS011;46159;42.550;21.904;2024-01-15T02:42:42;325.33;;;185.70;;
60314;SDS011;46159;42.550;21.904;2024-01-15T02:45:11;304.88;;;173.43;;
60314;SDS011;46159;42.550;21.904;2024-01-15T02:47:37;303.42;;;168.50;;
60314;SDS011;46159;42.550;21.904;2024-01-15T02:50:03;299.98;;;171.88;;
60314;SDS011;46159;42.550;21.904;2024-01-15T02:52:30;300.50;;;174.02;;
60314;SDS011;46159;42.550;21.904;2024-01-15T02:54:56;291.92;;;163.50;;
60314;SDS011;46159;42.550;21.904;2024-01-15T02:57:22;306.25;;;162.68;;
60314;SDS011;46159;42.550;21.904;2024-01-15T02:59:48;309.40;;;168.13;;
60314;SDS011;46159;42.550;21.904;2024-01-15T03:02:15;327.95;;;176.20;;
60314;SDS011;46159;42.550;21.904;2024-01-15T03:04:44;336.13;;;181.10;;
60314;SDS011;46159;42.550;21.904;2024-01-15T03:07:11;324.45;;;173.07;;
60314;SDS011;46159;42.550;21.904;2024-01-15T03:09:37;288.63;;;160.05;;
60314;SDS011;46159;42.550;21.904;2024-01-15T03:12:03;304.92;;;164.48;;
60314;SDS011;46159;42.550;21.904;2024-01-15T03:14:30;293.08;;;162.30;;
60314;SDS011;46159;42.550;21.904;2024-01-15T03:16:56;325.52;;;174.18;;
60314;SDS011;46159;42.550;21.904;2024-01-15T03:19:22;329.25;;;176.02;;
60314;SDS011;46159;42.550;21.904;2024-01-15T03:21:48;344.17;;;187.77;;
60314;SDS011;46159;42.550;21.904;2024-01-15T03:24:14;372.38;;;201.70;;
60314;SDS011;46159;42.550;21.904;2024-01-15T03:26:41;353.85;;;191.02;;
60314;SDS011;46159;42.550;21.904;2024-01-15T03:29:07;375.20;;;203.63;;
60314;SDS011;46159;42.550;21.904;2024-01-15T03:31:34;389.98;;;216.77;;
60314;SDS011;46159;42.550;21.904;2024-01-15T03:34:00;377.50;;;209.20;;
60314;SDS011;46159;42.550;21.904;2024-01-15T03:36:26;370.15;;;207.00;;
60314;SDS011;46159;42.550;21.904;2024-01-15T03:38:53;323.75;;;180.75;;
60314;SDS011;46159;42.550;21.904;2024-01-15T03:41:19;372.45;;;207.80;;
60314;SDS011;46159;42.550;21.904;2024-01-15T03:43:45;403.05;;;224.63;;
60314;SDS011;46159;42.550;21.904;2024-01-15T03:46:11;453.95;;;255.38;;
60314;SDS011;46159;42.550;21.904;2024-01-15T03:48:37;426.98;;;238.57;;
60314;SDS011;46159;42.550;21.904;2024-01-15T03:51:04;418.50;;;233.48;;
60314;SDS011;46159;42.550;21.904;2024-01-15T03:53:30;432.75;;;245.90;;
60314;SDS011;46159;42.550;21.904;2024-01-15T03:55:57;421.75;;;238.45;;
60314;SDS011;46159;42.550;21.904;2024-01-15T03:58:23;451.13;;;253.60;;
60314;SDS011;46159;42.550;21.904;2024-01-15T04:00:49;454.88;;;267.00;;
60314;SDS011;46159;42.550;21.904;2024-01-15T04:03:15;461.75;;;272.27;;
60314;SDS011;46159;42.550;21.904;2024-01-15T04:05:42;466.27;;;273.63;;
60314;SDS011;46159;42.550;21.904;2024-01-15T04:08:09;450.35;;;261.23;;
60314;SDS011;46159;42.550;21.904;2024-01-15T04:10:36;415.33;;;233.38;;
60314;SDS011;46159;42.550;21.904;2024-01-15T04:13:03;361.42;;;201.40;;
60314;SDS011;46159;42.550;21.904;2024-01-15T04:15:29;330.08;;;184.52;;
60314;SDS011;46159;42.550;21.904;2024-01-15T04:17:55;326.13;;;182.05;;
60314;SDS011;46159;42.550;21.904;2024-01-15T04:20:22;325.77;;;180.73;;
60314;SDS011;46159;42.550;21.904;2024-01-15T04:22:49;314.45;;;179.73;;
60314;SDS011;46159;42.550;21.904;2024-01-15T04:25:16;299.48;;;171.15;;
60314;SDS011;46159;42.550;21.904;2024-01-15T04:27:42;277.23;;;161.68;;
60314;SDS011;46159;42.550;21.904;2024-01-15T04:30:09;259.42;;;151.93;;
60314;SDS011;46159;42.550;21.904;2024-01-15T04:32:35;238.70;;;143.98;;
60314;SDS011;46159;42.550;21.904;2024-01-15T04:35:02;278.63;;;156.18;;
60314;SDS011;46159;42.550;21.904;2024-01-15T04:37:29;294.15;;;170.98;;
60314;SDS011;46159;42.550;21.904;2024-01-15T04:39:56;291.65;;;173.93;;
60314;SDS011;46159;42.550;21.904;2024-01-15T04:42:22;332.33;;;198.40;;
60314;SDS011;46159;42.550;21.904;2024-01-15T04:44:51;452.08;;;281.80;;
60314;SDS011;46159;42.550;21.904;2024-01-15T04:47:17;386.05;;;239.82;;
60314;SDS011;46159;42.550;21.904;2024-01-15T04:49:43;420.88;;;257.30;;
60314;SDS011;46159;42.550;21.904;2024-01-15T04:52:09;399.30;;;241.77;;
60314;SDS011;46159;42.550;21.904;2024-01-15T04:54:36;411.17;;;240.45;;
60314;SDS011;46159;42.550;21.904;2024-01-15T04:57:04;379.15;;;219.23;;
60314;SDS011;46159;42.550;21.904;2024-01-15T04:59:33;362.65;;;214.38;;
60314;SDS011;46159;42.550;21.904;2024-01-15T05:01:59;311.27;;;189.50;;
60314;SDS011;46159;42.550;21.904;2024-01-15T05:04:25;324.52;;;185.48;;
60314;SDS011;46159;42.550;21.904;2024-01-15T05:06:53;296.67;;;175.70;;
60314;SDS011;46159;42.550;21.904;2024-01-15T05:09:19;295.98;;;168.60;;
60314;SDS011;46159;42.550;21.904;2024-01-15T05:11:45;293.50;;;168.80;;
60314;SDS011;46159;42.550;21.904;2024-01-15T05:14:11;293.08;;;166.32;;
60314;SDS011;46159;42.550;21.904;2024-01-15T05:16:38;295.35;;;167.77;;
60314;SDS011;46159;42.550;21.904;2024-01-15T05:19:04;277.65;;;155.50;;
60314;SDS011;46159;42.550;21.904;2024-01-15T05:21:31;268.08;;;153.52;;
60314;SDS011;46159;42.550;21.904;2024-01-15T05:23:57;293.80;;;154.73;;
60314;SDS011;46159;42.550;21.904;2024-01-15T05:26:25;271.30;;;145.82;;
60314;SDS011;46159;42.550;21.904;2024-01-15T05:28:51;264.90;;;147.00;;
60314;SDS011;46159;42.550;21.904;2024-01-15T05:31:17;298.88;;;163.90;;
60314;SDS011;46159;42.550;21.904;2024-01-15T05:33:43;291.98;;;167.00;;
60314;SDS011;46159;42.550;21.904;2024-01-15T05:36:09;261.70;;;144.18;;
60314;SDS011;46159;42.550;21.904;2024-01-15T05:38:37;264.90;;;149.40;;
60314;SDS011;46159;42.550;21.904;2024-01-15T05:41:03;262.20;;;144.95;;
60314;SDS011;46159;42.550;21.904;2024-01-15T05:43:29;260.80;;;142.45;;
60314;SDS011;46159;42.550;21.904;2024-01-15T05:45:55;257.33;;;143.02;;
60314;SDS011;46159;42.550;21.904;2024-01-15T05:48:21;233.27;;;127.85;;
60314;SDS011;46159;42.550;21.904;2024-01-15T05:50:49;199.73;;;112.43;;
60314;SDS011;46159;42.550;21.904;2024-01-15T05:53:15;187.32;;;107.80;;
60314;SDS011;46159;42.550;21.904;2024-01-15T05:55:41;182.80;;;103.97;;
60314;SDS011;46159;42.550;21.904;2024-01-15T05:58:07;161.27;;;91.60;;
60314;SDS011;46159;42.550;21.904;2024-01-15T06:00:34;147.80;;;85.50;;
60314;SDS011;46159;42.550;21.904;2024-01-15T06:03:01;131.82;;;74.95;;
60314;SDS011;46159;42.550;21.904;2024-01-15T06:05:28;135.35;;;76.20;;
60314;SDS011;46159;42.550;21.904;2024-01-15T06:07:54;143.40;;;83.18;;
60314;SDS011;46159;42.550;21.904;2024-01-15T06:10:20;149.82;;;82.85;;
60314;SDS011;46159;42.550;21.904;2024-01-15T06:12:46;135.73;;;82.50;;
60314;SDS011;46159;42.550;21.904;2024-01-15T06:15:13;157.20;;;85.88;;
60314;SDS011;46159;42.550;21.904;2024-01-15T06:17:39;163.98;;;82.50;;
60314;SDS011;46159;42.550;21.904;2024-01-15T06:20:06;151.55;;;85.05;;
60314;SDS011;46159;42.550;21.904;2024-01-15T06:22:34;141.93;;;79.68;;
60314;SDS011;46159;42.550;21.904;2024-01-15T06:25:02;159.35;;;90.07;;
60314;SDS011;46159;42.550;21.904;2024-01-15T06:27:28;143.07;;;84.85;;
60314;SDS011;46159;42.550;21.904;2024-01-15T06:29:54;176.32;;;98.28;;
60314;SDS011;46159;42.550;21.904;2024-01-15T06:32:22;198.25;;;112.18;;
60314;SDS011;46159;42.550;21.904;2024-01-15T06:34:49;181.77;;;104.00;;
60314;SDS011;46159;42.550;21.904;2024-01-15T06:37:16;170.85;;;95.93;;
60314;SDS011;46159;42.550;21.904;2024-01-15T06:39:45;166.68;;;96.22;;
60314;SDS011;46159;42.550;21.904;2024-01-15T06:42:11;181.52;;;111.45;;
60314;SDS011;46159;42.550;21.904;2024-01-15T06:44:37;225.65;;;131.75;;
60314;SDS011;46159;42.550;21.904;2024-01-15T06:47:05;212.38;;;117.72;;
60314;SDS011;46159;42.550;21.904;2024-01-15T06:49:31;239.95;;;139.80;;
60314;SDS011;46159;42.550;21.904;2024-01-15T06:51:58;291.90;;;161.60;;
60314;SDS011;46159;42.550;21.904;2024-01-15T06:54:26;336.63;;;201.15;;
60314;SDS011;46159;42.550;21.904;2024-01-15T06:56:55;278.65;;;155.98;;
60314;SDS011;46159;42.550;21.904;2024-01-15T06:59:22;236.50;;;131.20;;
60314;SDS011;46159;42.550;21.904;2024-01-15T07:01:48;298.48;;;177.15;;
60314;SDS011;46159;42.550;21.904;2024-01-15T07:04:18;264.17;;;154.57;;
60314;SDS011;46159;42.550;21.904;2024-01-15T07:06:44;215.48;;;123.53;;
60314;SDS011;46159;42.550;21.904;2024-01-15T07:09:10;202.98;;;120.80;;
60314;SDS011;46159;42.550;21.904;2024-01-15T07:11:38;202.15;;;122.03;;
60314;SDS011;46159;42.550;21.904;2024-01-15T07:14:05;227.20;;;128.25;;
60314;SDS011;46159;42.550;21.904;2024-01-15T07:22:23;235.57;;;132.65;;
60314;SDS011;46159;42.550;21.904;2024-01-15T07:24:51;232.05;;;128.32;;
60314;SDS011;46159;42.550;21.904;2024-01-15T07:27:17;210.73;;;124.40;;
60314;SDS011;46159;42.550;21.904;2024-01-15T07:29:45;249.38;;;140.10;;
60314;SDS011;46159;42.550;21.904;2024-01-15T07:32:17;283.92;;;168.57;;
60314;SDS011;46159;42.550;21.904;2024-01-15T07:34:43;308.45;;;175.05;;
60314;SDS011;46159;42.550;21.904;2024-01-15T07:37:09;328.65;;;197.63;;
60314;SDS011;46159;42.550;21.904;2024-01-15T07:39:37;289.98;;;178.63;;
60314;SDS011;46159;42.550;21.904;2024-01-15T07:42:04;321.38;;;199.57;;
60314;SDS011;46159;42.550;21.904;2024-01-15T07:44:31;343.60;;;213.65;;
60314;SDS011;46159;42.550;21.904;2024-01-15T07:46:57;265.75;;;162.23;;
60314;SDS011;46159;42.550;21.904;2024-01-15T07:49:23;269.52;;;157.27;;
60314;SDS011;46159;42.550;21.904;2024-01-15T07:51:49;243.52;;;149.82;;
60314;SDS011;46159;42.550;21.904;2024-01-15T07:54:16;254.93;;;159.40;;
60314;SDS011;46159;42.550;21.904;2024-01-15T07:59:21;342.70;;;221.40;;
60314;SDS011;46159;42.550;21.904;2024-01-15T08:01:51;374.20;;;235.07;;
60314;SDS011;46159;42.550;21.904;2024-01-15T08:04:20;373.42;;;236.45;;
60314;SDS011;46159;42.550;21.904;2024-01-15T08:06:54;384.73;;;244.40;;
60314;SDS011;46159;42.550;21.904;2024-01-15T08:12:13;379.13;;;240.10;;
60314;SDS011;46159;42.550;21.904;2024-01-15T08:14:42;389.50;;;251.02;;
60314;SDS011;46159;42.550;21.904;2024-01-15T08:17:09;391.10;;;254.25;;
60314;SDS011;46159;42.550;21.904;2024-01-15T08:19:35;394.67;;;261.23;;
60314;SDS011;46159;42.550;21.904;2024-01-15T08:22:02;414.65;;;274.95;;
60314;SDS011;46159;42.550;21.904;2024-01-15T08:24:28;425.85;;;285.35;;
60314;SDS011;46159;42.550;21.904;2024-01-15T08:26:57;469.13;;;313.48;;
60314;SDS011;46159;42.550;21.904;2024-01-15T08:29:23;460.10;;;314.85;;
60314;SDS011;46159;42.550;21.904;2024-01-15T08:31:50;463.75;;;317.02;;
60314;SDS011;46159;42.550;21.904;2024-01-15T08:34:17;475.80;;;332.95;;
60314;SDS011;46159;42.550;21.904;2024-01-15T08:36:44;431.95;;;302.48;;
60314;SDS011;46159;42.550;21.904;2024-01-15T08:39:10;434.15;;;302.67;;
60314;SDS011;46159;42.550;21.904;2024-01-15T08:41:37;439.25;;;296.77;;
60314;SDS011;46159;42.550;21.904;2024-01-15T08:44:03;439.02;;;305.27;;
60314;SDS011;46159;42.550;21.904;2024-01-15T08:46:29;457.88;;;313.30;;
60314;SDS011;46159;42.550;21.904;2024-01-15T08:49:05;455.15;;;311.70;;
60314;SDS011;46159;42.550;21.904;2024-01-15T08:51:32;444.23;;;299.75;;
60314;SDS011;46159;42.550;21.904;2024-01-15T08:53:58;446.27;;;304.42;;
60314;SDS011;46159;42.550;21.904;2024-01-15T08:56:24;424.33;;;289.83;;
60314;SDS011;46159;42.550;21.904;2024-01-15T08:58:52;411.08;;;276.55;;
60314;SDS011;46159;42.550;21.904;2024-01-15T09:01:18;401.50;;;263.10;;
60314;SDS011;46159;42.550;21.904;2024-01-15T09:03:44;399.40;;;269.65;;
60314;SDS011;46159;42.550;21.904;2024-01-15T09:06:11;379.77;;;249.65;;
60314;SDS011;46159;42.550;21.904;2024-01-15T09:08:38;367.45;;;243.68;;
60314;SDS011;46159;42.550;21.904;2024-01-15T09:11:07;372.13;;;244.70;;
60314;SDS011;46159;42.550;21.904;2024-01-15T09:13:33;341.00;;;228.43;;
60314;SDS011;46159;42.550;21.904;2024-01-15T09:15:59;338.77;;;226.18;;
60314;SDS011;46159;42.550;21.904;2024-01-15T09:18:30;346.42;;;228.23;;
60314;SDS011;46159;42.550;21.904;2024-01-15T09:21:06;329.38;;;219.57;;
60314;SDS011;46159;42.550;21.904;2024-01-15T09:23:37;309.52;;;205.60;;
60314;SDS011;46159;42.550;21.904;2024-01-15T09:26:04;299.05;;;199.55;;
60314;SDS011;46159;42.550;21.904;2024-01-15T09:28:30;299.20;;;197.75;;
60314;SDS011;46159;42.550;21.904;2024-01-15T09:30:56;241.77;;;151.20;;
60314;SDS011;46159;42.550;21.904;2024-01-15T09:33:24;206.73;;;131.85;;
60314;SDS011;46159;42.550;21.904;2024-01-15T09:35:50;188.45;;;119.38;;
60314;SDS011;46159;42.550;21.904;2024-01-15T09:38:17;183.90;;;115.82;;
60314;SDS011;46159;42.550;21.904;2024-01-15T09:40:45;177.75;;;119.13;;
60314;SDS011;46159;42.550;21.904;2024-01-15T09:43:15;184.30;;;119.40;;
60314;SDS011;46159;42.550;21.904;2024-01-15T09:45:42;165.35;;;109.80;;
60314;SDS011;46159;42.550;21.904;2024-01-15T09:48:08;165.18;;;101.45;;
60314;SDS011;46159;42.550;21.904;2024-01-15T09:50:36;130.70;;;84.05;;
60314;SDS011;46159;42.550;21.904;2024-01-15T09:53:02;115.22;;;73.55;;
60314;SDS011;46159;42.550;21.904;2024-01-15T09:55:29;99.13;;;68.18;;
60314;SDS011;46159;42.550;21.904;2024-01-15T09:58:03;112.97;;;72.22;;
60314;SDS011;46159;42.550;21.904;2024-01-15T10:00:32;118.63;;;78.70;;
60314;SDS011;46159;42.550;21.904;2024-01-15T10:03:02;107.13;;;73.45;;
60314;SDS011;46159;42.550;21.904;2024-01-15T10:05:30;114.32;;;78.25;;
60314;SDS011;46159;42.550;21.904;2024-01-15T10:07:57;112.15;;;76.90;;
60314;SDS011;46159;42.550;21.904;2024-01-15T10:10:25;120.60;;;79.60;;
60314;SDS011;46159;42.550;21.904;2024-01-15T10:12:55;123.97;;;81.65;;
60314;SDS011;46159;42.550;21.904;2024-01-15T10:15:22;114.97;;;75.10;;
60314;SDS011;46159;42.550;21.904;2024-01-15T10:17:50;96.18;;;63.65;;
60314;SDS011;46159;42.550;21.904;2024-01-15T10:20:26;109.60;;;73.50;;
60314;SDS011;46159;42.550;21.904;2024-01-15T10:22:53;96.13;;;59.88;;
60314;SDS011;46159;42.550;21.904;2024-01-15T10:25:23;85.45;;;54.22;;
60314;SDS011;46159;42.550;21.904;2024-01-15T10:28:01;82.25;;;57.92;;
60314;SDS011;46159;42.550;21.904;2024-01-15T10:30:29;98.05;;;65.38;;
60314;SDS011;46159;42.550;21.904;2024-01-15T10:35:32;98.38;;;62.58;;
60314;SDS011;46159;42.550;21.904;2024-01-15T10:38:00;85.15;;;52.00;;
60314;SDS011;46159;42.550;21.904;2024-01-15T10:40:29;90.70;;;55.83;;
60314;SDS011;46159;42.550;21.904;2024-01-15T10:43:05;77.22;;;48.55;;
60314;SDS011;46159;42.550;21.904;2024-01-15T10:45:32;43.75;;;28.88;;
60314;SDS011;46159;42.550;21.904;2024-01-15T10:47:59;45.92;;;27.10;;
60314;SDS011;46159;42.550;21.904;2024-01-15T10:50:27;35.00;;;22.17;;
60314;SDS011;46159;42.550;21.904;2024-01-15T10:52:55;32.75;;;19.40;;
60314;SDS011;46159;42.550;21.904;2024-01-15T10:55:23;37.17;;;22.13;;
60314;SDS011;46159;42.550;21.904;2024-01-15T10:58:08;31.48;;;18.65;;
60314;SDS011;46159;42.550;21.904;2024-01-15T11:00:35;39.00;;;25.60;;
60314;SDS011;46159;42.550;21.904;2024-01-15T11:03:05;43.50;;;28.58;;
60314;SDS011;46159;42.550;21.904;2024-01-15T11:05:36;35.60;;;24.70;;
60314;SDS011;46159;42.550;21.904;2024-01-15T11:08:05;37.22;;;22.33;;
60314;SDS011;46159;42.550;21.904;2024-01-15T11:10:40;66.10;;;33.78;;
60314;SDS011;46159;42.550;21.904;2024-01-15T11:16:10;50.00;;;29.05;;
60314;SDS011;46159;42.550;21.904;2024-01-15T11:18:41;53.78;;;30.80;;
60314;SDS011;46159;42.550;21.904;2024-01-15T11:21:19;51.47;;;29.30;;
60314;SDS011;46159;42.550;21.904;2024-01-15T11:24:05;45.50;;;29.38;;
60314;SDS011;46159;42.550;21.904;2024-01-15T11:26:37;46.22;;;28.88;;
60314;SDS011;46159;42.550;21.904;2024-01-15T11:29:07;39.42;;;22.05;;
60314;SDS011;46159;42.550;21.904;2024-01-15T11:34:07;64.80;;;32.78;;
60314;SDS011;46159;42.550;21.904;2024-01-15T11:41:58;90.20;;;53.33;;
60314;SDS011;46159;42.550;21.904;2024-01-15T11:44:25;64.38;;;40.20;;
60314;SDS011;46159;42.550;21.904;2024-01-15T11:47:01;82.75;;;48.08;;
60314;SDS011;46159;42.550;21.904;2024-01-15T11:51:55;77.55;;;39.63;;
60314;SDS011;46159;42.550;21.904;2024-01-15T11:54:21;93.25;;;48.28;;
60314;SDS011;46159;42.550;21.904;2024-01-15T11:56:50;89.35;;;53.55;;
60314;SDS011;46159;42.550;21.904;2024-01-15T11:59:16;82.70;;;46.92;;
60314;SDS011;46159;42.550;21.904;2024-01-15T12:01:42;71.63;;;43.55;;
60314;SDS011;46159;42.550;21.904;2024-01-15T12:04:08;73.38;;;43.22;;
60314;SDS011;46159;42.550;21.904;2024-01-15T12:06:35;84.97;;;40.70;;
60314;SDS011;46159;42.550;21.904;2024-01-15T12:09:08;61.20;;;37.22;;
60314;SDS011;46159;42.550;21.904;2024-01-15T12:11:34;62.60;;;38.17;;
60314;SDS011;46159;42.550;21.904;2024-01-15T12:14:02;86.45;;;48.28;;
60314;SDS011;46159;42.550;21.904;2024-01-15T12:16:28;55.08;;;32.55;;
60314;SDS011;46159;42.550;21.904;2024-01-15T12:18:55;50.78;;;32.60;;
60314;SDS011;46159;42.550;21.904;2024-01-15T12:21:21;57.83;;;35.72;;
60314;SDS011;46159;42.550;21.904;2024-01-15T12:23:48;46.60;;;29.50;;
60314;SDS011;46159;42.550;21.904;2024-01-15T12:26:17;50.72;;;31.30;;
60314;SDS011;46159;42.550;21.904;2024-01-15T12:28:45;36.80;;;25.30;;
60314;SDS011;46159;42.550;21.904;2024-01-15T12:31:11;40.22;;;27.20;;
60314;SDS011;46159;42.550;21.904;2024-01-15T12:33:38;45.42;;;27.90;;
60314;SDS011;46159;42.550;21.904;2024-01-15T12:36:05;53.45;;;34.40;;
60314;SDS011;46159;42.550;21.904;2024-01-15T12:38:32;73.30;;;40.83;;
60314;SDS011;46159;42.550;21.904;2024-01-15T12:40:59;60.92;;;38.72;;
60314;SDS011;46159;42.550;21.904;2024-01-15T12:43:26;66.03;;;36.00;;
60314;SDS011;46159;42.550;21.904;2024-01-15T12:48:57;58.42;;;33.83;;
60314;SDS011;46159;42.550;21.904;2024-01-15T12:51:25;63.60;;;30.60;;
60314;SDS011;46159;42.550;21.904;2024-01-15T12:53:55;66.78;;;39.13;;
60314;SDS011;46159;42.550;21.904;2024-01-15T12:56:24;67.78;;;42.15;;
60314;SDS011;46159;42.550;21.904;2024-01-15T12:58:52;65.22;;;43.28;;
60314;SDS011;46159;42.550;21.904;2024-01-15T13:04:24;58.53;;;33.50;;
60314;SDS011;46159;42.550;21.904;2024-01-15T13:06:51;51.10;;;33.70;;
60314;SDS011;46159;42.550;21.904;2024-01-15T13:09:19;63.58;;;36.35;;
60314;SDS011;46159;42.550;21.904;2024-01-15T13:11:49;58.28;;;36.13;;
60314;SDS011;46159;42.550;21.904;2024-01-15T13:14:17;58.70;;;38.90;;
60314;SDS011;46159;42.550;21.904;2024-01-15T13:16:47;49.85;;;31.35;;
60314;SDS011;46159;42.550;21.904;2024-01-15T13:19:24;63.47;;;37.95;;
60314;SDS011;46159;42.550;21.904;2024-01-15T13:21:52;59.85;;;37.38;;
60314;SDS011;46159;42.550;21.904;2024-01-15T13:24:21;61.42;;;35.30;;
60314;SDS011;46159;42.550;21.904;2024-01-15T13:27:20;55.08;;;33.55;;
60314;SDS011;46159;42.550;21.904;2024-01-15T13:29:47;59.40;;;36.38;;
60314;SDS011;46159;42.550;21.904;2024-01-15T13:38:26;73.35;;;40.80;;
60314;SDS011;46159;42.550;21.904;2024-01-15T13:41:03;57.10;;;32.25;;
60314;SDS011;46159;42.550;21.904;2024-01-15T13:43:32;66.85;;;40.88;;
60314;SDS011;46159;42.550;21.904;2024-01-15T13:49:07;57.28;;;36.33;;
60314;SDS011;46159;42.550;21.904;2024-01-15T13:51:39;52.72;;;32.30;;
60314;SDS011;46159;42.550;21.904;2024-01-15T13:54:09;60.63;;;35.63;;
60314;SDS011;46159;42.550;21.904;2024-01-15T13:56:42;73.47;;;42.22;;
60314;SDS011;46159;42.550;21.904;2024-01-15T13:59:17;77.88;;;45.53;;
60314;SDS011;46159;42.550;21.904;2024-01-15T14:05:03;92.90;;;50.38;;
60314;SDS011;46159;42.550;21.904;2024-01-15T14:10:36;68.50;;;42.72;;
60314;SDS011;46159;42.550;21.904;2024-01-15T14:13:12;80.38;;;47.50;;
60314;SDS011;46159;42.550;21.904;2024-01-15T14:18:27;61.65;;;35.33;;
60314;SDS011;46159;42.550;21.904;2024-01-15T14:21:01;54.08;;;33.88;;
60314;SDS011;46159;42.550;21.904;2024-01-15T14:23:31;52.00;;;31.38;;
60314;SDS011;46159;42.550;21.904;2024-01-15T14:25:58;59.58;;;35.70;;
60314;SDS011;46159;42.550;21.904;2024-01-15T14:31:15;60.40;;;37.75;;
60314;SDS011;46159;42.550;21.904;2024-01-15T14:33:42;56.80;;;35.20;;
60314;SDS011;46159;42.550;21.904;2024-01-15T14:36:08;71.95;;;42.15;;
60314;SDS011;46159;42.550;21.904;2024-01-15T14:38:36;64.13;;;36.05;;
60314;SDS011;46159;42.550;21.904;2024-01-15T14:41:07;64.47;;;38.80;;
60314;SDS011;46159;42.550;21.904;2024-01-15T14:43:34;47.03;;;30.77;;
60314;SDS011;46159;42.550;21.904;2024-01-15T14:46:01;53.42;;;28.95;;
60314;SDS011;46159;42.550;21.904;2024-01-15T14:48:29;47.58;;;30.77;;
60314;SDS011;46159;42.550;21.904;2024-01-15T14:50:57;41.40;;;24.33;;